sensor_id;sensor_type;location;lat;lon;timestamp;P1;durP1;ratioP1;P2;durP2;ratioP2
46417;SDS011;69884;64.758;20.962;2023-05-18T00:01:04;0.10;;;0.10;;
46417;SDS011;69884;64.758;20.962;2023-05-18T00:03:29;0.10;;;0.10;;
46417;SDS011;69884;64.758;20.962;2023-05-18T00:05:57;0.10;;;0.10;;
46417;SDS011;69884;64.758;20.962;2023-05-18T00:08:28;0.10;;;0.10;;
46417;SDS011;69884;64.758;20.962;2023-05-18T00:10:53;0.10;;;0.10;;
46417;SDS011;69884;64.758;20.962;2023-05-18T00:13:18;0.40;;;0.10;;
46417;SDS011;69884;64.758;20.962;2023-05-18T00:15:44;0.10;;;0.10;;
46417;SDS011;69884;64.758;20.962;2023-05-18T00:18:09;0.10;;;0.10;;
46417;SDS011;69884;64.758;20.962;2023-05-18T00:20:35;0.30;;;0.10;;
46417;SDS011;69884;64.758;20.962;2023-05-18T00:23:00;0.40;;;0.10;;
46417;SDS011;69884;64.758;20.962;2023-05-18T00:25:26;0.20;;;0.10;;
46417;SDS011;69884;64.758;20.962;2023-05-18T00:27:51;0.20;;;0.10;;
46417;SDS011;69884;64.758;20.962;2023-05-18T00:30:17;0.10;;;0.10;;
46417;SDS011;69884;64.758;20.962;2023-05-18T00:32:42;0.20;;;0.10;;
46417;SDS011;69884;64.758;20.962;2023-05-18T00:35:07;0.20;;;0.10;;
46417;SDS011;69884;64.758;20.962;2023-05-18T00:37:33;0.50;;;0.10;;
46417;SDS011;69884;64.758;20.962;2023-05-18T00:39:58;0.10;;;0.10;;
46417;SDS011;69884;64.758;20.962;2023-05-18T00:42:24;0.10;;;0.10;;
46417;SDS011;69884;64.758;20.962;2023-05-18T00:44:49;0.10;;;0.10;;
46417;SDS011;69884;64.758;20.962;2023-05-18T00:47:14;0.17;;;0.10;;
46417;SDS011;69884;64.758;20.962;2023-05-18T00:49:42;0.10;;;0.10;;
46417;SDS011;69884;64.758;20.962;2023-05-18T00:52:07;0.10;;;0.10;;
46417;SDS011;69884;64.758;20.962;2023-05-18T00:54:33;0.70;;;0.10;;
46417;SDS011;69884;64.758;20.962;2023-05-18T00:56:58;0.20;;;0.10;;
46417;SDS011;69884;64.758;20.962;2023-05-18T00:59:27;0.63;;;0.10;;
46417;SDS011;69884;64.758;20.962;2023-05-18T01:01:52;0.10;;;0.10;;
46417;SDS011;69884;64.758;20.962;2023-05-18T01:04:17;0.10;;;0.10;;
46417;SDS011;69884;64.758;20.962;2023-05-18T01:06:45;0.30;;;0.10;;
46417;SDS011;69884;64.758;20.962;2023-05-18T01:09:11;0.20;;;0.10;;
46417;SDS011;69884;64.758;20.962;2023-05-18T01:11:57;0.50;;;0.10;;
46417;SDS011;69884;64.758;20.962;2023-05-18T01:14:30;0.30;;;0.10;;
46417;SDS011;69884;64.758;20.962;2023-05-18T01:24:44;0.10;;;0.10;;
46417;SDS011;69884;64.758;20.962;2023-05-18T01:27:12;0.22;;;0.10;;
46417;SDS011;69884;64.758;20.962;2023-05-18T01:29:40;0.08;;;0.08;;
46417;SDS011;69884;64.758;20.962;2023-05-18T01:32:06;0.10;;;0.10;;
46417;SDS011;69884;64.758;20.962;2023-05-18T01:34:32;0.10;;;0.10;;
46417;SDS011;69884;64.758;20.962;2023-05-18T01:36:57;0.20;;;0.10;;
46417;SDS011;69884;64.758;20.962;2023-05-18T01:39:22;0.20;;;0.10;;
46417;SDS011;69884;64.758;20.962;2023-05-18T01:41:55;0.10;;;0.10;;
46417;SDS011;69884;64.758;20.962;2023-05-18T01:44:26;0.10;;;0.10;;
46417;SDS011;69884;64.758;20.962;2023-05-18T01:46:57;0.10;;;0.10;;
46417;SDS011;69884;64.758;20.962;2023-05-18T01:51:55;0.00;;;0.00;;
46417;SDS011;69884;64.758;20.962;2023-05-18T01:54:21;0.10;;;0.10;;
46417;SDS011;69884;64.758;20.962;2023-05-18T01:56:48;0.10;;;0.10;;
46417;SDS011;69884;64.758;20.962;2023-05-18T01:59:14;0.10;;;0.10;;
46417;SDS011;69884;64.758;20.962;2023-05-18T02:01:40;0.20;;;0.10;;
46417;SDS011;69884;64.758;20.962;2023-05-18T02:04:08;0.10;;;0.10;;
46417;SDS011;69884;64.758;20.962;2023-05-18T02:06:34;0.30;;;0.30;;
46417;SDS011;69884;64.758;20.962;2023-05-18T02:08:59;0.43;;;0.20;;
46417;SDS011;69884;64.758;20.962;2023-05-18T02:11:24;0.40;;;0.10;;
46417;SDS011;69884;64.758;20.962;2023-05-18T02:13:50;0.20;;;0.10;;
46417;SDS011;69884;64.758;20.962;2023-05-18T02:16:15;0.50;;;0.10;;
46417;SDS011;69884;64.758;20.962;2023-05-18T02:18:41;0.10;;;0.10;;
46417;SDS011;69884;64.758;20.962;2023-05-18T02:21:07;0.10;;;0.10;;
46417;SDS011;69884;64.758;20.962;2023-05-18T02:23:33;0.10;;;0.10;;
46417;SDS011;69884;64.758;20.962;2023-05-18T02:25:59;0.10;;;0.10;;
46417;SDS011;69884;64.758;20.962;2023-05-18T02:28:24;0.10;;;0.10;;
46417;SDS011;69884;64.758;20.962;2023-05-18T02:30:50;0.53;;;0.30;;
46417;SDS011;69884;64.758;20.962;2023-05-18T02:33:15;0.23;;;0.10;;
46417;SDS011;69884;64.758;20.962;2023-05-18T02:35:41;0.10;;;0.10;;
46417;SDS011;69884;64.758;20.962;2023-05-18T02:38:06;0.10;;;0.10;;
46417;SDS011;69884;64.758;20.962;2023-05-18T02:40:32;0.30;;;0.10;;
46417;SDS011;69884;64.758;20.962;2023-05-18T02:42:57;0.20;;;0.10;;
46417;SDS011;69884;64.758;20.962;2023-05-18T02:45:22;0.10;;;0.10;;
46417;SDS011;69884;64.758;20.962;2023-05-18T02:47:48;0.00;;;0.00;;
46417;SDS011;69884;64.758;20.962;2023-05-18T02:50:13;0.10;;;0.10;;
46417;SDS011;69884;64.758;20.962;2023-05-18T02:52:38;0.00;;;0.00;;
46417;SDS011;69884;64.758;20.962;2023-05-18T02:55:07;0.10;;;0.10;;
46417;SDS011;69884;64.758;20.962;2023-05-18T02:57:32;0.10;;;0.10;;
46417;SDS011;69884;64.758;20.962;2023-05-18T02:59:58;0.50;;;0.10;;
46417;SDS011;69884;64.758;20.962;2023-05-18T03:02:23;0.10;;;0.10;;
46417;SDS011;69884;64.758;20.962;2023-05-18T03:04:49;0.30;;;0.10;;
46417;SDS011;69884;64.758;20.962;2023-05-18T03:07:21;0.10;;;0.10;;
46417;SDS011;69884;64.758;20.962;2023-05-18T03:09:46;0.03;;;0.03;;
46417;SDS011;69884;64.758;20.962;2023-05-18T03:12:11;0.10;;;0.10;;
46417;SDS011;69884;64.758;20.962;2023-05-18T03:14:37;0.10;;;0.10;;
46417;SDS011;69884;64.758;20.962;2023-05-18T03:17:02;0.10;;;0.10;;
46417;SDS011;69884;64.758;20.962;2023-05-18T03:19:29;0.10;;;0.10;;
46417;SDS011;69884;64.758;20.962;2023-05-18T03:21:55;0.03;;;0.03;;
46417;SDS011;69884;64.758;20.962;2023-05-18T03:24:21;0.10;;;0.10;;
46417;SDS011;69884;64.758;20.962;2023-05-18T03:26:50;0.10;;;0.10;;
46417;SDS011;69884;64.758;20.962;2023-05-18T03:29:18;0.20;;;0.10;;
46417;SDS011;69884;64.758;20.962;2023-05-18T03:31:43;0.10;;;0.10;;
46417;SDS011;69884;64.758;20.962;2023-05-18T03:34:09;0.28;;;0.10;;
46417;SDS011;69884;64.758;20.962;2023-05-18T03:36:34;0.10;;;0.10;;
46417;SDS011;69884;64.758;20.962;2023-05-18T03:39:00;1.70;;;0.20;;
46417;SDS011;69884;64.758;20.962;2023-05-18T03:41:25;0.10;;;0.10;;
46417;SDS011;69884;64.758;20.962;2023-05-18T03:43:51;0.10;;;0.10;;
46417;SDS011;69884;64.758;20.962;2023-05-18T03:46:16;0.10;;;0.10;;
46417;SDS011;69884;64.758;20.962;2023-05-18T03:48:41;0.10;;;0.10;;
46417;SDS011;69884;64.758;20.962;2023-05-18T03:51:07;0.60;;;0.10;;
46417;SDS011;69884;64.758;20.962;2023-05-18T03:53:32;0.10;;;0.10;;
46417;SDS011;69884;64.758;20.962;2023-05-18T03:56:00;0.10;;;0.10;;
46417;SDS011;69884;64.758;20.962;2023-05-18T03:58:25;0.67;;;0.10;;
46417;SDS011;69884;64.758;20.962;2023-05-18T04:00:51;0.10;;;0.10;;
46417;SDS011;69884;64.758;20.962;2023-05-18T04:03:16;0.10;;;0.10;;
46417;SDS011;69884;64.758;20.962;2023-05-18T04:05:42;0.10;;;0.10;;
46417;SDS011;69884;64.758;20.962;2023-05-18T04:08:07;0.10;;;0.10;;
46417;SDS011;69884;64.758;20.962;2023-05-18T04:10:34;0.10;;;0.10;;
46417;SDS011;69884;64.758;20.962;2023-05-18T04:13:00;0.10;;;0.10;;
46417;SDS011;69884;64.758;20.962;2023-05-18T04:15:25;0.10;;;0.10;;
46417;SDS011;69884;64.758;20.962;2023-05-18T04:17:50;0.10;;;0.10;;
46417;SDS011;69884;64.758;20.962;2023-05-18T04:20:17;0.10;;;0.10;;
46417;SDS011;69884;64.758;20.962;2023-05-18T04:22:44;0.10;;;0.10;;
46417;SDS011;69884;64.758;20.962;2023-05-18T04:25:10;0.40;;;0.13;;
46417;SDS011;69884;64.758;20.962;2023-05-18T04:27:36;0.70;;;0.10;;
46417;SDS011;69884;64.758;20.962;2023-05-18T04:30:02;0.10;;;0.10;;
46417;SDS011;69884;64.758;20.962;2023-05-18T04:32:28;0.10;;;0.10;;
46417;SDS011;69884;64.758;20.962;2023-05-18T04:34:55;0.10;;;0.10;;
46417;SDS011;69884;64.758;20.962;2023-05-18T04:37:22;0.20;;;0.15;;
46417;SDS011;69884;64.758;20.962;2023-05-18T04:39:47;0.28;;;0.20;;
46417;SDS011;69884;64.758;20.962;2023-05-18T04:42:12;0.20;;;0.20;;
46417;SDS011;69884;64.758;20.962;2023-05-18T04:44:38;0.10;;;0.10;;
46417;SDS011;69884;64.758;20.962;2023-05-18T04:47:04;0.47;;;0.20;;
46417;SDS011;69884;64.758;20.962;2023-05-18T04:49:32;0.20;;;0.20;;
46417;SDS011;69884;64.758;20.962;2023-05-18T04:51:58;0.20;;;0.20;;
46417;SDS011;69884;64.758;20.962;2023-05-18T04:54:27;0.23;;;0.20;;
46417;SDS011;69884;64.758;20.962;2023-05-18T04:56:55;0.20;;;0.20;;
46417;SDS011;69884;64.758;20.962;2023-05-18T04:59:20;0.20;;;0.20;;
46417;SDS011;69884;64.758;20.962;2023-05-18T05:01:50;0.20;;;0.20;;
46417;SDS011;69884;64.758;20.962;2023-05-18T05:04:15;0.70;;;0.20;;
46417;SDS011;69884;64.758;20.962;2023-05-18T05:06:40;0.20;;;0.20;;
46417;SDS011;69884;64.758;20.962;2023-05-18T05:09:06;0.30;;;0.20;;
46417;SDS011;69884;64.758;20.962;2023-05-18T05:11:31;1.40;;;0.23;;
46417;SDS011;69884;64.758;20.962;2023-05-18T05:13:56;0.20;;;0.20;;
46417;SDS011;69884;64.758;20.962;2023-05-18T05:16:21;0.20;;;0.20;;
46417;SDS011;69884;64.758;20.962;2023-05-18T05:18:47;0.40;;;0.20;;
46417;SDS011;69884;64.758;20.962;2023-05-18T05:21:12;0.60;;;0.30;;
46417;SDS011;69884;64.758;20.962;2023-05-18T05:23:37;0.30;;;0.20;;
46417;SDS011;69884;64.758;20.962;2023-05-18T05:26:03;0.60;;;0.30;;
46417;SDS011;69884;64.758;20.962;2023-05-18T05:28:28;0.60;;;0.30;;
46417;SDS011;69884;64.758;20.962;2023-05-18T05:30:53;0.47;;;0.27;;
46417;SDS011;69884;64.758;20.962;2023-05-18T05:33:18;0.30;;;0.23;;
46417;SDS011;69884;64.758;20.962;2023-05-18T05:35:44;1.33;;;0.30;;
46417;SDS011;69884;64.758;20.962;2023-05-18T05:38:09;0.57;;;0.20;;
46417;SDS011;69884;64.758;20.962;2023-05-18T05:40:34;0.60;;;0.20;;
46417;SDS011;69884;64.758;20.962;2023-05-18T05:43:00;0.67;;;0.40;;
46417;SDS011;69884;64.758;20.962;2023-05-18T05:45:25;0.20;;;0.20;;
46417;SDS011;69884;64.758;20.962;2023-05-18T05:47:52;0.40;;;0.30;;
46417;SDS011;69884;64.758;20.962;2023-05-18T05:50:18;0.20;;;0.20;;
46417;SDS011;69884;64.758;20.962;2023-05-18T05:52:43;0.30;;;0.30;;
46417;SDS011;69884;64.758;20.962;2023-05-18T05:55:08;0.50;;;0.30;;
46417;SDS011;69884;64.758;20.962;2023-05-18T05:57:33;0.30;;;0.30;;
46417;SDS011;69884;64.758;20.962;2023-05-18T05:59:59;0.30;;;0.30;;
46417;SDS011;69884;64.758;20.962;2023-05-18T06:02:25;0.40;;;0.30;;
46417;SDS011;69884;64.758;20.962;2023-05-18T06:04:51;0.40;;;0.20;;
46417;SDS011;69884;64.758;20.962;2023-05-18T06:07:16;0.20;;;0.20;;
46417;SDS011;69884;64.758;20.962;2023-05-18T06:09:41;0.30;;;0.20;;
46417;SDS011;69884;64.758;20.962;2023-05-18T06:12:07;0.97;;;0.23;;
46417;SDS011;69884;64.758;20.962;2023-05-18T06:14:32;0.70;;;0.30;;
46417;SDS011;69884;64.758;20.962;2023-05-18T06:16:57;0.20;;;0.20;;
46417;SDS011;69884;64.758;20.962;2023-05-18T06:19:22;0.57;;;0.30;;
46417;SDS011;69884;64.758;20.962;2023-05-18T06:21:48;0.27;;;0.20;;
46417;SDS011;69884;64.758;20.962;2023-05-18T06:24:13;0.40;;;0.20;;
46417;SDS011;69884;64.758;20.962;2023-05-18T06:26:39;0.50;;;0.30;;
46417;SDS011;69884;64.758;20.962;2023-05-18T06:29:05;0.80;;;0.30;;
46417;SDS011;69884;64.758;20.962;2023-05-18T06:31:32;0.63;;;0.32;;
46417;SDS011;69884;64.758;20.962;2023-05-18T06:33:58;0.20;;;0.20;;
46417;SDS011;69884;64.758;20.962;2023-05-18T06:36:24;0.60;;;0.20;;
46417;SDS011;69884;64.758;20.962;2023-05-18T06:38:49;0.83;;;0.37;;
46417;SDS011;69884;64.758;20.962;2023-05-18T06:41:14;0.40;;;0.20;;
46417;SDS011;69884;64.758;20.962;2023-05-18T06:43:40;1.97;;;0.40;;
46417;SDS011;69884;64.758;20.962;2023-05-18T06:46:05;1.50;;;0.20;;
46417;SDS011;69884;64.758;20.962;2023-05-18T06:48:32;0.47;;;0.20;;
46417;SDS011;69884;64.758;20.962;2023-05-18T06:50:57;1.20;;;0.27;;
46417;SDS011;69884;64.758;20.962;2023-05-18T06:53:22;0.70;;;0.30;;
46417;SDS011;69884;64.758;20.962;2023-05-18T06:55:48;1.00;;;0.20;;
46417;SDS011;69884;64.758;20.962;2023-05-18T06:58:13;0.70;;;0.20;;
46417;SDS011;69884;64.758;20.962;2023-05-18T07:00:38;0.70;;;0.30;;
46417;SDS011;69884;64.758;20.962;2023-05-18T07:03:04;1.90;;;0.50;;
46417;SDS011;69884;64.758;20.962;2023-05-18T07:05:29;0.90;;;0.32;;
46417;SDS011;69884;64.758;20.962;2023-05-18T07:07:54;1.60;;;0.40;;
46417;SDS011;69884;64.758;20.962;2023-05-18T07:10:20;1.88;;;1.23;;
46417;SDS011;69884;64.758;20.962;2023-05-18T07:12:46;3.72;;;2.55;;
46417;SDS011;69884;64.758;20.962;2023-05-18T07:15:12;0.87;;;0.70;;
46417;SDS011;69884;64.758;20.962;2023-05-18T07:17:37;0.50;;;0.20;;
46417;SDS011;69884;64.758;20.962;2023-05-18T07:20:03;1.30;;;0.77;;
46417;SDS011;69884;64.758;20.962;2023-05-18T07:22:30;0.45;;;0.35;;
46417;SDS011;69884;64.758;20.962;2023-05-18T07:24:56;0.30;;;0.20;;
46417;SDS011;69884;64.758;20.962;2023-05-18T07:27:22;1.17;;;0.30;;
46417;SDS011;69884;64.758;20.962;2023-05-18T07:29:47;0.37;;;0.30;;
46417;SDS011;69884;64.758;20.962;2023-05-18T07:32:13;0.63;;;0.20;;
46417;SDS011;69884;64.758;20.962;2023-05-18T07:34:38;0.50;;;0.23;;
46417;SDS011;69884;64.758;20.962;2023-05-18T07:37:03;0.50;;;0.30;;
46417;SDS011;69884;64.758;20.962;2023-05-18T07:39:29;0.45;;;0.20;;
46417;SDS011;69884;64.758;20.962;2023-05-18T07:41:54;0.80;;;0.20;;
46417;SDS011;69884;64.758;20.962;2023-05-18T07:44:20;0.40;;;0.30;;
46417;SDS011;69884;64.758;20.962;2023-05-18T07:46:45;0.67;;;0.20;;
46417;SDS011;69884;64.758;20.962;2023-05-18T07:49:10;1.00;;;0.20;;
46417;SDS011;69884;64.758;20.962;2023-05-18T07:51:36;0.20;;;0.20;;
46417;SDS011;69884;64.758;20.962;2023-05-18T07:54:01;0.80;;;0.30;;
46417;SDS011;69884;64.758;20.962;2023-05-18T07:56:27;0.27;;;0.20;;
46417;SDS011;69884;64.758;20.962;2023-05-18T07:58:53;1.13;;;0.20;;
46417;SDS011;69884;64.758;20.962;2023-05-18T08:01:18;0.30;;;0.20;;
46417;SDS011;69884;64.758;20.962;2023-05-18T08:03:46;0.50;;;0.28;;
46417;SDS011;69884;64.758;20.962;2023-05-18T08:06:11;1.33;;;0.30;;
46417;SDS011;69884;64.758;20.962;2023-05-18T08:08:36;0.30;;;0.30;;
46417;SDS011;69884;64.758;20.962;2023-05-18T08:11:02;0.87;;;0.30;;
46417;SDS011;69884;64.758;20.962;2023-05-18T08:13:27;1.50;;;0.30;;
46417;SDS011;69884;64.758;20.962;2023-05-18T08:15:52;0.60;;;0.20;;
46417;SDS011;69884;64.758;20.962;2023-05-18T08:18:18;0.90;;;0.30;;
46417;SDS011;69884;64.758;20.962;2023-05-18T08:20:43;0.23;;;0.23;;
46417;SDS011;69884;64.758;20.962;2023-05-18T08:23:09;0.75;;;0.40;;
46417;SDS011;69884;64.758;20.962;2023-05-18T08:25:34;1.77;;;0.27;;
46417;SDS011;69884;64.758;20.962;2023-05-18T08:27:59;0.20;;;0.20;;
46417;SDS011;69884;64.758;20.962;2023-05-18T08:30:24;0.83;;;0.20;;
46417;SDS011;69884;64.758;20.962;2023-05-18T08:32:50;0.40;;;0.20;;
46417;SDS011;69884;64.758;20.962;2023-05-18T08:35:16;0.87;;;0.37;;
46417;SDS011;69884;64.758;20.962;2023-05-18T08:37:41;1.63;;;0.73;;
46417;SDS011;69884;64.758;20.962;2023-05-18T08:40:07;1.87;;;0.80;;
46417;SDS011;69884;64.758;20.962;2023-05-18T08:47:44;3.90;;;3.10;;
46417;SDS011;69884;64.758;20.962;2023-05-18T08:50:09;3.73;;;3.33;;
46417;SDS011;69884;64.758;20.962;2023-05-18T08:52:41;2.50;;;1.85;;
46417;SDS011;69884;64.758;20.962;2023-05-18T08:55:06;0.53;;;0.20;;
46417;SDS011;69884;64.758;20.962;2023-05-18T08:57:33;3.15;;;0.40;;
46417;SDS011;69884;64.758;20.962;2023-05-18T08:59:59;2.35;;;0.20;;
46417;SDS011;69884;64.758;20.962;2023-05-18T09:02:25;2.10;;;0.83;;
46417;SDS011;69884;64.758;20.962;2023-05-18T09:04:50;0.70;;;0.20;;
46417;SDS011;69884;64.758;20.962;2023-05-18T09:07:16;0.43;;;0.20;;
46417;SDS011;69884;64.758;20.962;2023-05-18T09:09:41;0.25;;;0.20;;
46417;SDS011;69884;64.758;20.962;2023-05-18T09:12:07;0.65;;;0.25;;
46417;SDS011;69884;64.758;20.962;2023-05-18T09:14:33;0.90;;;0.30;;
46417;SDS011;69884;64.758;20.962;2023-05-18T09:16:59;0.30;;;0.23;;
46417;SDS011;69884;64.758;20.962;2023-05-18T09:19:24;1.27;;;1.00;;
46417;SDS011;69884;64.758;20.962;2023-05-18T09:21:49;2.23;;;1.53;;
46417;SDS011;69884;64.758;20.962;2023-05-18T09:24:15;1.13;;;1.03;;
46417;SDS011;69884;64.758;20.962;2023-05-18T09:26:40;0.20;;;0.20;;
46417;SDS011;69884;64.758;20.962;2023-05-18T09:29:18;0.35;;;0.30;;
46417;SDS011;69884;64.758;20.962;2023-05-18T09:31:44;0.20;;;0.20;;
46417;SDS011;69884;64.758;20.962;2023-05-18T09:34:10;0.83;;;0.20;;
46417;SDS011;69884;64.758;20.962;2023-05-18T09:36:36;0.30;;;0.20;;
46417;SDS011;69884;64.758;20.962;2023-05-18T09:39:05;0.40;;;0.23;;
46417;SDS011;69884;64.758;20.962;2023-05-18T09:41:30;0.20;;;0.20;;
46417;SDS011;69884;64.758;20.962;2023-05-18T09:43:56;0.60;;;0.60;;
46417;SDS011;69884;64.758;20.962;2023-05-18T09:46:21;1.33;;;0.50;;
46417;SDS011;69884;64.758;20.962;2023-05-18T09:48:50;0.30;;;0.20;;
46417;SDS011;69884;64.758;20.962;2023-05-18T09:51:15;1.20;;;0.30;;
46417;SDS011;69884;64.758;20.962;2023-05-18T09:53:48;0.50;;;0.30;;
46417;SDS011;69884;64.758;20.962;2023-05-18T09:56:17;0.33;;;0.20;;
46417;SDS011;69884;64.758;20.962;2023-05-18T09:58:42;0.93;;;0.37;;
46417;SDS011;69884;64.758;20.962;2023-05-18T10:01:07;0.20;;;0.20;;
46417;SDS011;69884;64.758;20.962;2023-05-18T10:03:33;0.40;;;0.20;;
46417;SDS011;69884;64.758;20.962;2023-05-18T10:06:06;0.83;;;0.30;;
46417;SDS011;69884;64.758;20.962;2023-05-18T10:08:32;0.50;;;0.30;;
46417;SDS011;69884;64.758;20.962;2023-05-18T10:10:57;0.60;;;0.40;;
46417;SDS011;69884;64.758;20.962;2023-05-18T10:13:24;0.77;;;0.30;;
46417;SDS011;69884;64.758;20.962;2023-05-18T10:15:51;1.98;;;0.30;;
46417;SDS011;69884;64.758;20.962;2023-05-18T10:18:31;0.95;;;0.20;;
46417;SDS011;69884;64.758;20.962;2023-05-18T10:21:00;0.65;;;0.30;;
46417;SDS011;69884;64.758;20.962;2023-05-18T10:23:26;1.20;;;0.20;;
46417;SDS011;69884;64.758;20.962;2023-05-18T10:25:54;0.23;;;0.20;;
46417;SDS011;69884;64.758;20.962;2023-05-18T10:28:31;0.55;;;0.30;;
46417;SDS011;69884;64.758;20.962;2023-05-18T10:30:57;0.80;;;0.37;;
46417;SDS011;69884;64.758;20.962;2023-05-18T10:33:26;2.33;;;0.43;;
46417;SDS011;69884;64.758;20.962;2023-05-18T10:35:52;2.00;;;0.30;;
46417;SDS011;69884;64.758;20.962;2023-05-18T10:38:21;0.47;;;0.40;;
46417;SDS011;69884;64.758;20.962;2023-05-18T10:40:48;1.50;;;0.55;;
46417;SDS011;69884;64.758;20.962;2023-05-18T10:43:14;1.50;;;0.30;;
46417;SDS011;69884;64.758;20.962;2023-05-18T10:45:40;1.00;;;0.40;;
46417;SDS011;69884;64.758;20.962;2023-05-18T10:48:05;1.55;;;0.50;;
46417;SDS011;69884;64.758;20.962;2023-05-18T10:50:33;1.25;;;0.30;;
46417;SDS011;69884;64.758;20.962;2023-05-18T10:52:59;0.50;;;0.35;;
46417;SDS011;69884;64.758;20.962;2023-05-18T10:55:24;0.35;;;0.30;;
46417;SDS011;69884;64.758;20.962;2023-05-18T10:57:52;1.10;;;0.43;;
46417;SDS011;69884;64.758;20.962;2023-05-18T11:00:18;0.70;;;0.40;;
46417;SDS011;69884;64.758;20.962;2023-05-18T11:02:44;1.00;;;0.40;;
46417;SDS011;69884;64.758;20.962;2023-05-18T11:05:10;1.10;;;0.30;;
46417;SDS011;69884;64.758;20.962;2023-05-18T11:07:36;1.10;;;0.40;;
46417;SDS011;69884;64.758;20.962;2023-05-18T11:10:02;1.25;;;0.50;;
46417;SDS011;69884;64.758;20.962;2023-05-18T11:12:27;1.70;;;0.40;;
46417;SDS011;69884;64.758;20.962;2023-05-18T11:14:55;1.10;;;0.40;;
46417;SDS011;69884;64.758;20.962;2023-05-18T11:22:45;1.55;;;0.43;;
46417;SDS011;69884;64.758;20.962;2023-05-18T11:27:49;1.13;;;0.40;;
46417;SDS011;69884;64.758;20.962;2023-05-18T11:30:27;0.65;;;0.40;;
46417;SDS011;69884;64.758;20.962;2023-05-18T11:33:06;1.30;;;0.40;;
46417;SDS011;69884;64.758;20.962;2023-05-18T11:35:32;1.45;;;0.60;;
46417;SDS011;69884;64.758;20.962;2023-05-18T11:38:07;0.88;;;0.50;;
46417;SDS011;69884;64.758;20.962;2023-05-18T11:40:43;1.08;;;0.50;;
46417;SDS011;69884;64.758;20.962;2023-05-18T11:43:09;1.38;;;0.60;;
46417;SDS011;69884;64.758;20.962;2023-05-18T11:45:51;1.55;;;0.60;;
46417;SDS011;69884;64.758;20.962;2023-05-18T11:48:19;2.80;;;0.50;;
46417;SDS011;69884;64.758;20.962;2023-05-18T11:50:45;1.20;;;0.50;;
46417;SDS011;69884;64.758;20.962;2023-05-18T11:53:13;0.88;;;0.57;;
46417;SDS011;69884;64.758;20.962;2023-05-18T11:55:39;1.15;;;0.50;;
46417;SDS011;69884;64.758;20.962;2023-05-18T11:58:05;1.42;;;0.52;;
46417;SDS011;69884;64.758;20.962;2023-05-18T12:00:31;2.22;;;0.55;;
46417;SDS011;69884;64.758;20.962;2023-05-18T12:02:56;1.10;;;0.50;;
46417;SDS011;69884;64.758;20.962;2023-05-18T12:05:25;0.68;;;0.50;;
46417;SDS011;69884;64.758;20.962;2023-05-18T12:07:54;0.85;;;0.50;;
46417;SDS011;69884;64.758;20.962;2023-05-18T12:10:20;1.03;;;0.60;;
46417;SDS011;69884;64.758;20.962;2023-05-18T12:12:51;2.08;;;0.65;;
46417;SDS011;69884;64.758;20.962;2023-05-18T12:15:20;1.03;;;0.50;;
46417;SDS011;69884;64.758;20.962;2023-05-18T12:17:48;1.50;;;0.50;;
46417;SDS011;69884;64.758;20.962;2023-05-18T12:20:18;1.30;;;0.60;;
46417;SDS011;69884;64.758;20.962;2023-05-18T12:22:45;4.30;;;0.80;;
46417;SDS011;69884;64.758;20.962;2023-05-18T12:25:14;2.10;;;0.57;;
46417;SDS011;69884;64.758;20.962;2023-05-18T12:27:40;1.00;;;0.60;;
46417;SDS011;69884;64.758;20.962;2023-05-18T12:30:09;0.63;;;0.60;;
46417;SDS011;69884;64.758;20.962;2023-05-18T12:32:59;2.80;;;0.70;;
46417;SDS011;69884;64.758;20.962;2023-05-18T12:35:26;0.80;;;0.50;;
46417;SDS011;69884;64.758;20.962;2023-05-18T12:37:52;1.35;;;0.70;;
46417;SDS011;69884;64.758;20.962;2023-05-18T12:40:22;3.35;;;0.73;;
46417;SDS011;69884;64.758;20.962;2023-05-18T12:42:54;2.22;;;0.70;;
46417;SDS011;69884;64.758;20.962;2023-05-18T12:45:21;3.47;;;0.80;;
46417;SDS011;69884;64.758;20.962;2023-05-18T12:47:46;1.65;;;0.60;;
46417;SDS011;69884;64.758;20.962;2023-05-18T12:50:17;0.98;;;0.55;;
46417;SDS011;69884;64.758;20.962;2023-05-18T12:52:43;1.77;;;0.70;;
46417;SDS011;69884;64.758;20.962;2023-05-18T12:55:08;1.23;;;0.65;;
46417;SDS011;69884;64.758;20.962;2023-05-18T12:57:34;1.77;;;0.80;;
46417;SDS011;69884;64.758;20.962;2023-05-18T13:00:01;1.67;;;0.60;;
46417;SDS011;69884;64.758;20.962;2023-05-18T13:02:33;2.87;;;0.73;;
46417;SDS011;69884;64.758;20.962;2023-05-18T13:05:06;1.50;;;0.73;;
46417;SDS011;69884;64.758;20.962;2023-05-18T13:07:39;3.17;;;0.70;;
46417;SDS011;69884;64.758;20.962;2023-05-18T13:10:27;1.65;;;0.90;;
46417;SDS011;69884;64.758;20.962;2023-05-18T13:12:50;1.33;;;0.60;;
46417;SDS011;69884;64.758;20.962;2023-05-18T13:15:21;3.00;;;1.35;;
46417;SDS011;69884;64.758;20.962;2023-05-18T13:17:47;2.20;;;0.80;;
46417;SDS011;69884;64.758;20.962;2023-05-18T13:20:13;1.65;;;0.70;;
46417;SDS011;69884;64.758;20.962;2023-05-18T13:22:39;1.97;;;0.80;;
46417;SDS011;69884;64.758;20.962;2023-05-18T13:25:05;1.73;;;0.68;;
46417;SDS011;69884;64.758;20.962;2023-05-18T13:27:31;1.80;;;0.77;;
46417;SDS011;69884;64.758;20.962;2023-05-18T13:29:56;4.25;;;0.98;;
46417;SDS011;69884;64.758;20.962;2023-05-18T13:32:23;1.25;;;0.80;;
46417;SDS011;69884;64.758;20.962;2023-05-18T13:34:48;1.33;;;0.73;;
46417;SDS011;69884;64.758;20.962;2023-05-18T13:37:16;1.20;;;0.80;;
46417;SDS011;69884;64.758;20.962;2023-05-18T13:39:41;1.93;;;0.93;;
46417;SDS011;69884;64.758;20.962;2023-05-18T13:42:07;1.60;;;0.70;;
46417;SDS011;69884;64.758;20.962;2023-05-18T13:44:32;2.25;;;0.70;;
46417;SDS011;69884;64.758;20.962;2023-05-18T13:46:57;2.92;;;1.20;;
46417;SDS011;69884;64.758;20.962;2023-05-18T13:49:23;1.77;;;0.80;;
46417;SDS011;69884;64.758;20.962;2023-05-18T13:51:48;2.43;;;0.77;;
46417;SDS011;69884;64.758;20.962;2023-05-18T13:54:13;1.97;;;0.80;;
46417;SDS011;69884;64.758;20.962;2023-05-18T13:56:39;2.30;;;0.90;;
46417;SDS011;69884;64.758;20.962;2023-05-18T13:59:04;1.38;;;0.73;;
46417;SDS011;69884;64.758;20.962;2023-05-18T14:01:30;2.30;;;0.73;;
46417;SDS011;69884;64.758;20.962;2023-05-18T14:03:56;1.45;;;0.63;;
46417;SDS011;69884;64.758;20.962;2023-05-18T14:06:22;2.63;;;0.77;;
46417;SDS011;69884;64.758;20.962;2023-05-18T14:08:48;1.95;;;0.90;;
46417;SDS011;69884;64.758;20.962;2023-05-18T14:11:13;2.50;;;0.70;;
46417;SDS011;69884;64.758;20.962;2023-05-18T14:13:38;1.73;;;0.93;;
46417;SDS011;69884;64.758;20.962;2023-05-18T14:16:04;2.40;;;0.70;;
46417;SDS011;69884;64.758;20.962;2023-05-18T14:18:29;2.80;;;0.80;;
46417;SDS011;69884;64.758;20.962;2023-05-18T14:20:54;1.73;;;0.83;;
46417;SDS011;69884;64.758;20.962;2023-05-18T14:23:22;1.80;;;0.90;;
46417;SDS011;69884;64.758;20.962;2023-05-18T14:25:48;1.58;;;0.70;;
46417;SDS011;69884;64.758;20.962;2023-05-18T14:28:13;1.87;;;0.87;;
46417;SDS011;69884;64.758;20.962;2023-05-18T14:30:39;2.20;;;0.80;;
46417;SDS011;69884;64.758;20.962;2023-05-18T14:33:04;2.80;;;1.00;;
46417;SDS011;69884;64.758;20.962;2023-05-18T14:35:29;2.27;;;1.10;;
46417;SDS011;69884;64.758;20.962;2023-05-18T14:37:55;3.07;;;0.90;;
46417;SDS011;69884;64.758;20.962;2023-05-18T14:40:20;2.28;;;0.80;;
46417;SDS011;69884;64.758;20.962;2023-05-18T14:42:47;1.60;;;0.93;;
46417;SDS011;69884;64.758;20.962;2023-05-18T14:45:13;1.30;;;0.80;;
46417;SDS011;69884;64.758;20.962;2023-05-18T14:47:38;3.13;;;0.90;;
46417;SDS011;69884;64.758;20.962;2023-05-18T14:50:04;2.40;;;0.70;;
46417;SDS011;69884;64.758;20.962;2023-05-18T14:52:29;2.55;;;1.00;;